Time;durP1;ratioP1;P1;durP2;ratioP2;P2;SDS_P1;SDS_P2;PMS_P1;PMS_P2;Temp;Humidity;BMP_temperature;BMP_pressure;BME280_temperature;BME280_humidity;BME280_pressure;Samples;Min_cycle;Max_cycle;Signal;HPM_P1;HPM_P2
2023/12/18 19:20:03;;;;;;;12.53;8.97;;;9.50;70.20;;;;;;1891993;22;20518;-62
2023/12/18 19:22:30;;;;;;;11.13;8.27;;;9.30;70.40;;;;;;5042457;28;20811;-62
2023/12/18 19:24:57;;;;;;;11.97;8.87;;;9.30;70.40;;;;;;5049621;28;20955;-65
2023/12/18 19:27:24;;;;;;;11.13;8.90;;;9.30;70.60;;;;;;5059508;28;20562;-63
2023/12/18 19:29:51;;;;;;;13.10;8.87;;;9.20;70.90;;;;;;5067910;28;20467;-62
2023/12/18 19:32:18;;;;;;;10.90;8.83;;;9.20;71.00;;;;;;5068783;28;20490;-64
2023/12/18 19:34:45;;;;;;;11.80;8.40;;;9.10;71.10;;;;;;5063962;28;20539;-63
2023/12/18 19:37:14;;;;;;;12.27;9.10;;;9.10;70.90;;;;;;5042444;28;20505;-61
2023/12/18 19:39:41;;;;;;;11.73;8.73;;;9.10;71.30;;;;;;5038229;28;20439;-62
2023/12/18 19:42:08;;;;;;;10.27;8.60;;;9.10;71.70;;;;;;5069666;28;20443;-62
2023/12/18 19:44:35;;;;;;;10.90;8.50;;;9.00;72.30;;;;;;5062627;28;20983;-63
2023/12/18 19:47:02;;;;;;;9.77;8.43;;;9.00;72.50;;;;;;5049789;28;20567;-64
2023/12/18 19:49:28;;;;;;;11.87;8.67;;;9.00;72.90;;;;;;5067288;28;20493;-63
2023/12/18 19:51:55;;;;;;;12.43;9.33;;;9.00;72.90;;;;;;5060497;28;20809;-63
2023/12/18 19:54:24;;;;;;;12.27;9.27;;;9.00;73.60;;;;;;5049870;28;20447;-62
2023/12/18 19:56:51;;;;;;;11.37;8.87;;;8.90;74.30;;;;;;5049213;28;20464;-63
2023/12/18 19:59:18;;;;;;;12.60;9.33;;;8.80;74.80;;;;;;5049582;28;20444;-66
2023/12/18 20:01:46;;;;;;;13.70;10.03;;;8.80;74.90;;;;;;5070890;28;20506;-64
2023/12/18 20:04:15;;;;;;;12.53;9.23;;;8.80;75.00;;;;;;5073702;28;20520;-63
2023/12/18 20:06:42;;;;;;;13.50;10.87;;;8.80;75.20;;;;;;5074369;28;20502;-63
2023/12/18 20:09:09;;;;;;;13.60;10.40;;;8.80;75.50;;;;;;5056904;28;20468;-66
2023/12/18 20:11:38;;;;;;;15.03;10.33;;;8.70;75.80;;;;;;5062897;28;20456;-64
2023/12/18 20:14:07;;;;;;;16.07;10.90;;;8.70;76.00;;;;;;5054917;28;20484;-63
2023/12/18 20:16:34;;;;;;;12.67;9.77;;;8.60;76.20;;;;;;5050307;28;20483;-63
2023/12/18 20:19:01;;;;;;;11.13;9.53;;;8.70;76.40;;;;;;5063991;28;20476;-63
2023/12/18 20:21:27;;;;;;;12.23;8.90;;;8.70;76.40;;;;;;5051004;28;20472;-64
2023/12/18 20:23:54;;;;;;;12.23;8.93;;;8.70;76.50;;;;;;5060859;28;20443;-63
2023/12/18 20:26:21;;;;;;;11.60;10.10;;;8.70;76.30;;;;;;5068936;28;20483;-63
2023/12/18 20:28:49;;;;;;;12.83;10.10;;;8.70;76.70;;;;;;5055788;28;20510;-64
2023/12/18 20:31:17;;;;;;;12.87;9.27;;;8.60;77.20;;;;;;5054526;28;20543;-64
2023/12/18 20:33:43;;;;;;;13.00;9.87;;;8.60;77.00;;;;;;5065138;28;20524;-63
2023/12/18 20:36:10;;;;;;;11.03;9.57;;;8.60;77.20;;;;;;5063629;28;20460;-64
2023/12/18 20:38:37;;;;;;;12.50;10.10;;;8.60;77.60;;;;;;5036016;28;21019;-63
2023/12/18 20:41:04;;;;;;;12.80;10.13;;;8.50;77.80;;;;;;5034611;28;20533;-63
2023/12/18 20:43:31;;;;;;;12.60;9.40;;;8.50;77.60;;;;;;5054426;28;20939;-63
2023/12/18 20:46:00;;;;;;;14.70;9.43;;;8.50;77.70;;;;;;5065722;28;20478;-63
2023/12/18 20:48:27;;;;;;;11.47;9.10;;;8.50;77.80;;;;;;5070312;28;20460;-63
2023/12/18 20:50:54;;;;;;;14.23;9.20;;;8.50;78.10;;;;;;5072125;28;20515;-63
2023/12/18 20:53:21;;;;;;;12.83;10.07;;;8.50;78.10;;;;;;5072461;28;20478;-62
2023/12/18 20:55:49;;;;;;;13.77;9.90;;;8.60;78.20;;;;;;5060600;28;20543;-63
2023/12/18 20:58:16;;;;;;;12.07;9.60;;;8.60;77.90;;;;;;5073137;28;20493;-62
2023/12/18 21:00:43;;;;;;;12.63;9.03;;;8.60;77.80;;;;;;5069937;28;20526;-63
2023/12/18 21:03:11;;;;;;;13.40;10.47;;;8.70;77.50;;;;;;5071735;28;20542;-63
2023/12/18 21:05:38;;;;;;;13.57;10.60;;;8.80;77.40;;;;;;5053006;28;20510;-62
2023/12/18 21:08:05;;;;;;;12.07;10.13;;;8.80;77.00;;;;;;5055522;28;20726;-63
2023/12/18 21:10:32;;;;;;;13.57;10.43;;;8.90;76.70;;;;;;5070931;28;20523;-64
2023/12/18 21:12:59;;;;;;;13.83;9.97;;;8.90;76.30;;;;;;5071157;28;20656;-64
2023/12/18 21:15:26;;;;;;;12.87;10.53;;;9.00;76.10;;;;;;5072304;28;20504;-63
2023/12/18 21:17:54;;;;;;;15.00;11.07;;;9.00;75.80;;;;;;5064979;28;20448;-64
2023/12/18 21:20:23;;;;;;;15.90;11.73;;;9.00;75.40;;;;;;5066502;28;20521;-63
2023/12/18 21:22:50;;;;;;;13.30;10.40;;;9.00;75.30;;;;;;5059947;28;20532;-64
2023/12/18 21:25:17;;;;;;;12.63;10.13;;;9.00;75.10;;;;;;5052047;28;20452;-62
2023/12/18 21:27:46;;;;;;;11.20;9.53;;;9.00;75.00;;;;;;5054144;28;20545;-63
2023/12/18 21:30:13;;;;;;;11.97;9.00;;;9.00;74.80;;;;;;5061191;28;20461;-63
2023/12/18 21:32:40;;;;;;;10.80;8.33;;;8.90;74.50;;;;;;5067456;28;21006;-64
2023/12/18 21:35:09;;;;;;;11.07;8.60;;;8.90;74.30;;;;;;5063804;28;20500;-64
2023/12/18 21:37:37;;;;;;;10.47;8.50;;;8.80;74.00;;;;;;5051555;28;20916;-64
2023/12/18 21:40:06;;;;;;;14.17;10.03;;;8.80;74.10;;;;;;5052742;28;20483;-64
2023/12/18 21:42:32;;;;;;;14.37;10.60;;;8.70;74.50;;;;;;5052519;28;20479;-64
2023/12/18 21:45:00;;;;;;;12.97;10.07;;;8.70;76.10;;;;;;5051328;28;20539;-65
2023/12/18 21:47:29;;;;;;;15.90;11.83;;;8.70;76.40;;;;;;5051490;28;20480;-64
2023/12/18 21:49:56;;;;;;;19.37;11.20;;;8.70;76.70;;;;;;5051331;28;20448;-62
2023/12/18 21:52:23;;;;;;;14.53;11.13;;;8.70;76.30;;;;;;5058399;28;20447;-63
2023/12/18 21:54:51;;;;;;;15.37;10.67;;;8.60;76.00;;;;;;5070958;28;20442;-65
2023/12/18 21:57:18;;;;;;;13.53;10.87;;;8.60;75.90;;;;;;5069870;28;20758;-64
2023/12/18 21:59:45;;;;;;;13.60;10.37;;;8.60;76.20;;;;;;5071082;28;20958;-64
2023/12/18 22:02:12;;;;;;;14.27;10.90;;;8.60;76.00;;;;;;5071105;28;20809;-63
2023/12/18 22:04:39;;;;;;;12.73;8.97;;;8.50;75.70;;;;;;5058942;28;20499;-64
2023/12/18 22:07:06;;;;;;;12.07;10.57;;;8.40;75.80;;;;;;5054814;28;20476;-65
2023/12/18 22:09:34;;;;;;;14.73;10.87;;;8.40;76.00;;;;;;5056392;28;20490;-64
2023/12/18 22:12:02;;;;;;;14.73;11.73;;;8.40;76.10;;;;;;5060975;28;20803;-65
2023/12/18 22:14:29;;;;;;;14.30;10.73;;;8.40;76.40;;;;;;5053001;28;20535;-65
2023/12/18 22:16:56;;;;;;;16.57;11.93;;;8.30;76.60;;;;;;5057669;28;20440;-64
2023/12/18 22:19:22;;;;;;;12.20;10.20;;;8.30;76.70;;;;;;5068716;28;20962;-63
2023/12/18 22:21:49;;;;;;;12.60;9.93;;;8.30;76.80;;;;;;5054134;28;20464;-64
2023/12/18 22:24:16;;;;;;;12.13;9.20;;;8.30;76.80;;;;;;5056589;28;20543;-63
2023/12/18 22:26:43;;;;;;;12.30;9.77;;;8.30;77.00;;;;;;5053569;28;20459;-64
2023/12/18 22:29:11;;;;;;;11.67;9.40;;;8.20;77.10;;;;;;5062364;28;20468;-64
2023/12/18 22:31:38;;;;;;;12.67;10.07;;;8.20;77.20;;;;;;5067467;28;20915;-62
2023/12/18 22:34:07;;;;;;;14.97;10.20;;;8.20;77.30;;;;;;5065426;28;20795;-64
2023/12/18 22:36:34;;;;;;;13.20;10.03;;;8.20;77.30;;;;;;5058951;28;20479;-63
2023/12/18 22:39:01;;;;;;;12.60;9.80;;;8.30;77.30;;;;;;5055996;28;20436;-65
2023/12/18 22:41:28;;;;;;;13.47;9.60;;;8.30;77.20;;;;;;5057997;28;20450;-65
2023/12/18 22:43:54;;;;;;;12.70;9.67;;;8.30;76.90;;;;;;5064131;28;21128;-64
2023/12/18 22:46:22;;;;;;;11.97;9.73;;;8.40;76.90;;;;;;5065934;28;20463;-64
2023/12/18 22:48:49;;;;;;;11.87;9.60;;;8.40;76.80;;;;;;5070209;28;20566;-64
2023/12/18 22:51:16;;;;;;;13.70;9.77;;;8.30;76.70;;;;;;5061429;28;20517;-64
2023/12/18 22:53:43;;;;;;;15.00;10.27;;;8.40;77.20;;;;;;5050257;28;20464;-62
2023/12/18 22:56:10;;;;;;;12.03;8.83;;;8.40;76.20;;;;;;5061963;28;20526;-64
2023/12/18 22:58:37;;;;;;;12.47;9.53;;;8.40;75.90;;;;;;5088407;28;20463;-63
2023/12/18 23:01:04;;;;;;;11.50;9.33;;;8.40;76.00;;;;;;5074040;28;20915;-63
2023/12/18 23:03:32;;;;;;;13.03;9.77;;;8.30;76.10;;;;;;5070897;28;20507;-63
2023/12/18 23:05:59;;;;;;;11.23;9.23;;;8.30;77.10;;;;;;5061879;28;20530;-64
2023/12/18 23:08:26;;;;;;;11.17;9.20;;;8.20;76.20;;;;;;5051102;28;20484;-64
2023/12/18 23:10:53;;;;;;;12.60;9.27;;;8.20;76.10;;;;;;5050073;28;20460;-64
2023/12/18 23:13:21;;;;;;;13.00;10.13;;;8.20;76.10;;;;;;5056304;28;20810;-62
2023/12/18 23:15:48;;;;;;;13.70;9.03;;;8.20;76.20;;;;;;5071278;28;20448;-63
2023/12/18 23:18:16;;;;;;;11.10;9.17;;;8.20;76.40;;;;;;5058815;28;20443;-62
2023/12/18 23:20:44;;;;;;;12.73;9.40;;;8.10;76.40;;;;;;5050111;28;20554;-63
2023/12/18 23:23:11;;;;;;;12.67;9.60;;;8.10;76.70;;;;;;5050100;28;20456;-63
2023/12/18 23:25:38;;;;;;;11.33;9.10;;;8.10;77.20;;;;;;5049772;28;20448;-63
2023/12/18 23:28:05;;;;;;;12.90;9.53;;;8.10;77.60;;;;;;5050161;28;20475;-63
2023/12/18 23:30:32;;;;;;;13.93;9.00;;;8.10;78.20;;;;;;5051177;28;20468;-63
2023/12/18 23:33:01;;;;;;;13.20;8.73;;;8.10;78.50;;;;;;5062248;28;20436;-62
2023/12/18 23:35:28;;;;;;;14.07;9.40;;;8.10;78.30;;;;;;5049706;28;20459;-64
2023/12/18 23:37:56;;;;;;;12.67;9.20;;;8.20;78.40;;;;;;5056132;28;20459;-64
2023/12/18 23:40:24;;;;;;;13.87;10.07;;;8.30;78.00;;;;;;5066784;28;20439;-63
2023/12/18 23:42:51;;;;;;;12.27;9.67;;;8.30;77.90;;;;;;5053410;28;20443;-65
2023/12/18 23:45:18;;;;;;;15.90;10.57;;;8.30;78.00;;;;;;5064616;28;20464;-64
2023/12/18 23:47:47;;;;;;;13.13;10.07;;;8.30;77.60;;;;;;5059328;28;20495;-63
2023/12/18 23:50:14;;;;;;;12.43;9.53;;;8.40;77.60;;;;;;5010290;28;20445;-64
2023/12/18 23:52:41;;;;;;;13.63;10.03;;;8.40;77.60;;;;;;5044082;28;20455;-64
2023/12/18 23:55:11;;;;;;;11.73;9.70;;;8.40;77.60;;;;;;5059772;28;20992;-63
2023/12/18 23:57:38;;;;;;;13.97;9.67;;;8.40;77.20;;;;;;5065947;28;20444;-64
